createdAt,value
2022-09-11T00:00:42.659Z,15.91
2022-09-11T00:03:50.118Z,15.78
2022-09-11T00:06:54.060Z,15.79
2022-09-11T00:10:02.870Z,15.79
2022-09-11T00:13:05.803Z,15.77
2022-09-11T00:16:19.859Z,15.75
2022-09-11T00:19:22.312Z,15.76
2022-09-11T00:22:24.530Z,15.77
2022-09-11T00:25:26.539Z,15.75
2022-09-11T00:28:29.850Z,15.73
2022-09-11T00:31:32.687Z,15.68
2022-09-11T00:34:43.083Z,15.68
2022-09-11T00:37:51.193Z,15.66
2022-09-11T00:40:53.354Z,15.65
2022-09-11T00:44:20.721Z,15.59
2022-09-11T00:47:29.216Z,15.57
2022-09-11T00:50:35.946Z,15.57
2022-09-11T00:53:38.210Z,15.55
2022-09-11T00:56:44.797Z,15.53
2022-09-11T00:59:52.388Z,15.49
2022-09-11T01:02:57.044Z,15.49
2022-09-11T01:06:12.744Z,15.46
2022-09-11T01:09:29.240Z,15.42
2022-09-11T01:12:42.640Z,15.37
2022-09-11T01:15:51.585Z,15.42
2022-09-11T01:19:05.038Z,15.44
2022-09-11T01:22:18.405Z,15.37
2022-09-11T01:25:34.531Z,15.38
2022-09-11T01:28:40.857Z,15.40
2022-09-11T01:31:48.323Z,15.36
2022-09-11T01:34:52.449Z,15.31
2022-09-11T01:38:09.343Z,15.29
2022-09-11T01:41:20.278Z,15.25
2022-09-11T01:44:32.755Z,15.19
2022-09-11T01:47:35.329Z,15.12
2022-09-11T01:50:39.493Z,15.07
2022-09-11T01:53:50.379Z,15.04
2022-09-11T01:57:00.416Z,15.02
2022-09-11T02:00:06.986Z,14.93
2022-09-11T02:03:27.377Z,14.94
2022-09-11T02:06:43.359Z,14.90
2022-09-11T02:10:02.240Z,14.83
2022-09-11T02:13:07.839Z,14.66
2022-09-11T02:16:32.798Z,14.67
2022-09-11T02:19:35.438Z,14.64
2022-09-11T02:22:38.667Z,14.57
2022-09-11T02:25:55.486Z,14.54
2022-09-11T02:29:04.662Z,14.34
2022-09-11T02:32:17.434Z,14.31
2022-09-11T02:35:29.831Z,14.29
2022-09-11T02:38:47.071Z,14.21
2022-09-11T02:41:55.440Z,14.14
2022-09-11T02:45:05.736Z,14.20
2022-09-11T02:48:26.708Z,14.19
2022-09-11T02:51:39.158Z,14.23
2022-09-11T02:54:45.363Z,14.33
2022-09-11T02:57:51.748Z,14.36
2022-09-11T03:00:59.493Z,14.26
2022-09-11T03:04:01.541Z,14.12
2022-09-11T03:07:06.555Z,14.17
2022-09-11T03:10:11.878Z,14.06
2022-09-11T03:13:17.184Z,14.03
2022-09-11T03:16:20.548Z,13.92
2022-09-11T03:19:22.802Z,13.91
2022-09-11T03:22:43.418Z,13.80
2022-09-11T03:25:57.512Z,13.73
2022-09-11T03:29:00.926Z,13.76
2022-09-11T03:32:16.767Z,13.76
2022-09-11T03:35:18.772Z,13.72
2022-09-11T03:38:21.351Z,13.70
2022-09-11T03:41:26.781Z,13.70
2022-09-11T03:44:33.188Z,13.74
2022-09-11T03:47:35.294Z,13.81
2022-09-11T03:50:37.826Z,13.91
2022-09-11T03:53:40.882Z,14.13
2022-09-11T03:56:43.248Z,14.29
2022-09-11T03:59:54.633Z,14.37
2022-09-11T04:03:04.600Z,14.44
2022-09-11T04:06:17.660Z,14.53
2022-09-11T04:09:30.329Z,14.59
2022-09-11T04:12:36.140Z,14.62
2022-09-11T04:15:38.231Z,14.69
2022-09-11T04:18:45.782Z,14.66
2022-09-11T04:21:48.279Z,14.70
2022-09-11T04:24:51.315Z,14.73
2022-09-11T04:27:57.527Z,14.66
2022-09-11T04:31:07.124Z,14.77
2022-09-11T04:34:11.280Z,14.71
2022-09-11T04:37:13.880Z,14.80
2022-09-11T04:40:16.580Z,14.83
2022-09-11T04:43:18.841Z,14.87
2022-09-11T04:46:46.308Z,14.92
2022-09-11T04:49:52.625Z,14.93
2022-09-11T04:52:55.146Z,15.05
2022-09-11T04:56:08.733Z,15.11
2022-09-11T04:59:29.053Z,15.11
2022-09-11T05:02:35.632Z,15.18
2022-09-11T05:05:47.584Z,15.14
2022-09-11T05:08:53.122Z,15.13
2022-09-11T05:11:59.409Z,15.17
2022-09-11T05:15:04.359Z,15.15
2022-09-11T05:18:07.597Z,15.25
2022-09-11T05:21:13.993Z,15.26
2022-09-11T05:24:34.582Z,15.29
2022-09-11T05:27:38.552Z,15.32
2022-09-11T05:30:40.680Z,15.43
2022-09-11T05:33:45.635Z,15.50
2022-09-11T05:36:48.020Z,15.58
2022-09-11T05:39:52.454Z,15.71
2022-09-11T05:42:59.139Z,15.81
2022-09-11T05:46:02.504Z,15.93
2022-09-11T05:49:05.476Z,16.12
2022-09-11T05:52:16.417Z,16.11
2022-09-11T05:55:18.817Z,16.04
2022-09-11T05:58:21.974Z,15.97
2022-09-11T06:01:24.845Z,15.88
2022-09-11T06:04:28.172Z,15.97
2022-09-11T06:07:30.546Z,16.10
2022-09-11T06:13:39.547Z,17.35
2022-09-11T06:16:44.898Z,17.35
2022-09-11T06:19:47.687Z,17.08
2022-09-11T06:22:51.031Z,17.27
2022-09-11T06:25:57.703Z,17.59
2022-09-11T06:29:04.812Z,18.69
2022-09-11T06:32:12.781Z,20.55
2022-09-11T06:35:22.287Z,20.85
2022-09-11T06:38:25.098Z,21.61
2022-09-11T06:41:40.519Z,25.01
2022-09-11T06:44:43.739Z,27.08
2022-09-11T06:47:54.160Z,29.25
2022-09-11T06:51:02.227Z,30.36
2022-09-11T06:54:06.237Z,30.81
2022-09-11T06:57:11.017Z,31.92
2022-09-11T07:00:23.871Z,32.29
2022-09-11T07:03:28.007Z,31.17
2022-09-11T07:06:39.907Z,28.27
2022-09-11T07:09:42.036Z,26.50
2022-09-11T07:12:44.763Z,26.35
2022-09-11T07:16:04.051Z,24.40
2022-09-11T07:22:31.697Z,23.69
2022-09-11T07:25:35.634Z,21.38
2022-09-11T07:28:46.856Z,20.18
2022-09-11T07:31:51.297Z,19.64
2022-09-11T07:34:56.798Z,19.02
2022-09-11T07:38:13.192Z,19.09
2022-09-11T07:41:15.982Z,18.78
2022-09-11T07:44:29.843Z,18.73
2022-09-11T07:47:41.746Z,18.62
2022-09-11T07:51:02.781Z,18.27
2022-09-11T07:54:05.355Z,18.04
2022-09-11T07:57:07.865Z,18.34
2022-09-11T08:00:10.801Z,18.78
2022-09-11T08:03:13.784Z,18.92
2022-09-11T08:06:28.193Z,19.17
2022-09-11T08:09:30.794Z,19.21
2022-09-11T08:12:47.980Z,19.16
2022-09-11T08:15:55.803Z,19.01
2022-09-11T08:18:59.610Z,18.71
2022-09-11T08:22:14.826Z,18.90
2022-09-11T08:25:27.741Z,19.09
2022-09-11T08:28:33.121Z,19.50
2022-09-11T08:32:01.596Z,19.61
2022-09-11T08:35:11.634Z,19.54
2022-09-11T08:38:23.018Z,19.47
2022-09-11T08:41:31.790Z,19.40
2022-09-11T08:45:21.278Z,19.59
2022-09-11T08:48:28.755Z,19.91
2022-09-11T08:51:38.369Z,19.89
2022-09-11T08:54:42.566Z,20.16
2022-09-11T08:58:33.420Z,20.55
2022-09-11T09:01:52.400Z,21.04
2022-09-11T09:05:04.971Z,21.41
2022-09-11T09:08:27.607Z,21.74
2022-09-11T09:11:33.819Z,22.25
2022-09-11T09:14:35.988Z,22.14
2022-09-11T09:17:43.620Z,22.01
2022-09-11T09:21:04.761Z,22.16
2022-09-11T09:24:19.676Z,22.05
2022-09-11T09:27:32.159Z,21.85
2022-09-11T09:30:56.817Z,21.61
2022-09-11T09:34:14.965Z,21.36
2022-09-11T09:37:27.440Z,21.32
2022-09-11T09:40:33.988Z,21.34
2022-09-11T09:43:48.150Z,21.21
2022-09-11T09:46:53.254Z,21.09
2022-09-11T09:49:58.754Z,21.02
2022-09-11T09:53:07.634Z,20.53
2022-09-11T09:56:13.267Z,20.49
2022-09-11T09:59:18.829Z,20.35
2022-09-11T10:02:51.080Z,20.74
2022-09-11T10:05:55.003Z,21.12
2022-09-11T10:09:01.375Z,21.25
2022-09-11T10:12:07.586Z,21.45
2022-09-11T10:15:18.360Z,21.48
2022-09-11T10:18:26.627Z,21.61
2022-09-11T10:21:30.331Z,21.94
2022-09-11T10:24:34.341Z,22.08
2022-09-11T10:27:40.725Z,21.92
2022-09-11T10:30:49.363Z,21.95
2022-09-11T10:33:53.253Z,21.97
2022-09-11T10:37:04.112Z,21.91
2022-09-11T10:40:09.454Z,21.82
2022-09-11T10:43:27.420Z,21.41
2022-09-11T10:46:41.501Z,21.04
2022-09-11T10:49:44.940Z,20.64
2022-09-11T10:53:04.736Z,20.29
2022-09-11T10:56:08.747Z,20.31
2022-09-11T10:59:17.865Z,20.27
2022-09-11T11:02:26.334Z,20.36
2022-09-11T11:05:58.350Z,20.35
2022-09-11T11:09:00.596Z,20.18
2022-09-11T11:12:15.401Z,20.32
2022-09-11T11:15:18.313Z,20.59
2022-09-11T11:18:43.371Z,21.00
2022-09-11T11:21:50.076Z,21.02
2022-09-11T11:25:07.500Z,21.14
2022-09-11T11:28:28.656Z,21.18
2022-09-11T11:31:49.510Z,20.90
2022-09-11T11:35:10.433Z,20.82
2022-09-11T11:38:34.904Z,20.72
2022-09-11T11:41:45.449Z,20.52
2022-09-11T11:44:54.711Z,20.31
2022-09-11T11:47:57.627Z,20.25
2022-09-11T11:51:03.573Z,20.19
2022-09-11T11:54:06.908Z,20.31
2022-09-11T11:57:18.563Z,20.70
2022-09-11T12:00:21.963Z,21.06
2022-09-11T12:03:32.361Z,21.79
2022-09-11T12:06:36.268Z,22.38
2022-09-11T12:09:38.818Z,22.85
2022-09-11T12:13:07.518Z,22.61
2022-09-11T12:16:12.812Z,22.36
2022-09-11T12:19:27.636Z,21.91
2022-09-11T12:22:39.256Z,21.60
2022-09-11T12:25:50.514Z,21.11
2022-09-11T12:29:19.264Z,21.16
2022-09-11T12:32:26.502Z,20.78
2022-09-11T12:35:44.105Z,20.33
2022-09-11T12:38:50.641Z,20.31
2022-09-11T12:41:54.329Z,20.24
2022-09-11T12:44:58.761Z,19.96
2022-09-11T12:48:22.414Z,19.89
2022-09-11T12:51:27.331Z,19.84
2022-09-11T12:54:41.436Z,19.96
2022-09-11T12:57:44.098Z,19.83
2022-09-11T13:00:49.650Z,19.88
2022-09-11T13:03:55.612Z,19.92
2022-09-11T13:06:59.653Z,19.95
2022-09-11T13:10:11.636Z,20.02
2022-09-11T13:13:33.592Z,20.14
2022-09-11T13:16:36.578Z,20.36
2022-09-11T13:19:39.555Z,20.44
2022-09-11T13:22:43.312Z,20.68
2022-09-11T13:25:45.737Z,20.90
2022-09-11T13:28:50.185Z,21.25
2022-09-11T13:31:53.785Z,21.42
2022-09-11T13:35:00.177Z,21.61
2022-09-11T13:38:09.017Z,21.92
2022-09-11T13:41:17.383Z,22.19
2022-09-11T13:44:33.710Z,22.22
2022-09-11T13:47:40.670Z,22.24
2022-09-11T13:50:45.075Z,22.27
2022-09-11T13:53:56.103Z,22.26
2022-09-11T13:56:59.392Z,21.95
2022-09-11T14:00:01.601Z,21.81
2022-09-11T14:03:06.996Z,21.69
2022-09-11T14:06:21.374Z,21.48
2022-09-11T14:09:27.558Z,21.54
2022-09-11T14:12:37.083Z,21.68
2022-09-11T14:15:42.855Z,21.49
2022-09-11T14:19:06.912Z,21.58
2022-09-11T14:22:27.859Z,21.65
2022-09-11T14:25:32.081Z,21.71
2022-09-11T14:28:45.771Z,21.72
2022-09-11T14:31:52.792Z,21.77
2022-09-11T14:34:56.296Z,21.87
2022-09-11T14:38:01.600Z,21.95
2022-09-11T14:41:11.548Z,22.01
2022-09-11T14:44:16.350Z,22.34
2022-09-11T14:47:20.040Z,22.64
2022-09-11T14:50:25.040Z,22.33
2022-09-11T14:53:29.214Z,22.23
2022-09-11T14:56:32.770Z,21.97
2022-09-11T14:59:35.325Z,22.03
2022-09-11T15:02:41.096Z,22.15
2022-09-11T15:05:48.131Z,21.96
2022-09-11T15:08:50.604Z,21.49
2022-09-11T15:11:53.317Z,21.48
2022-09-11T15:14:58.775Z,21.45
2022-09-11T15:18:01.450Z,21.32
2022-09-11T15:21:04.759Z,21.53
2022-09-11T15:24:07.229Z,21.52
2022-09-11T15:27:10.926Z,21.37
2022-09-11T15:30:13.709Z,21.29
2022-09-11T15:33:15.961Z,21.05
2022-09-11T15:36:18.900Z,21.04
2022-09-11T15:39:26.874Z,20.94
2022-09-11T15:42:28.785Z,20.97
2022-09-11T15:45:32.264Z,20.57
2022-09-11T15:48:34.785Z,20.49
2022-09-11T15:51:43.851Z,20.44
2022-09-11T15:54:48.978Z,20.37
2022-09-11T15:57:52.206Z,20.39
2022-09-11T16:00:55.945Z,20.33
2022-09-11T16:04:03.637Z,20.15
2022-09-11T16:07:06.025Z,19.97
2022-09-11T16:10:09.671Z,19.96
2022-09-11T16:13:16.040Z,19.91
2022-09-11T16:16:19.098Z,19.98
2022-09-11T16:19:24.072Z,19.86
2022-09-11T16:22:31.275Z,19.88
2022-09-11T16:25:38.652Z,19.80
2022-09-11T16:28:41.650Z,19.71
2022-09-11T16:31:45.077Z,19.57
2022-09-11T16:34:47.415Z,19.46
2022-09-11T16:37:51.014Z,19.27
2022-09-11T16:41:01.562Z,19.16
2022-09-11T16:44:05.636Z,19.07
2022-09-11T16:47:11.508Z,19.00
2022-09-11T16:50:14.244Z,18.88
2022-09-11T16:53:17.354Z,18.86
2022-09-11T16:56:22.240Z,18.80
2022-09-11T16:59:26.706Z,18.74
2022-09-11T17:02:30.198Z,18.74
2022-09-11T17:05:33.404Z,18.71
2022-09-11T17:08:41.799Z,18.60
2022-09-11T17:11:45.510Z,18.56
2022-09-11T17:14:49.121Z,18.49
2022-09-11T17:17:51.499Z,18.43
2022-09-11T17:20:59.663Z,18.32
2022-09-11T17:24:03.110Z,18.19
2022-09-11T17:27:06.053Z,18.09
2022-09-11T17:30:10.632Z,18.04
2022-09-11T17:33:16.406Z,17.99
2022-09-11T17:36:21.414Z,17.98
2022-09-11T17:39:25.559Z,17.86
2022-09-11T17:42:30.553Z,17.78
2022-09-11T17:45:33.322Z,17.75
2022-09-11T17:48:36.682Z,17.76
2022-09-11T17:51:41.391Z,17.77
2022-09-11T17:54:44.196Z,17.69
2022-09-11T17:57:52.387Z,17.79
2022-09-11T18:00:56.153Z,17.79
2022-09-11T18:04:02.390Z,17.77
2022-09-11T18:07:06.480Z,17.75
2022-09-11T18:10:14.386Z,17.80
2022-09-11T18:13:17.393Z,17.80
2022-09-11T18:16:21.588Z,17.85
2022-09-11T18:19:24.666Z,17.79
2022-09-11T18:22:29.823Z,17.72
2022-09-11T18:25:37.220Z,17.65
2022-09-11T18:28:41.031Z,17.64
2022-09-11T18:31:45.307Z,17.53
2022-09-11T18:34:48.729Z,17.47
2022-09-11T18:37:54.615Z,17.48
2022-09-11T18:41:00.119Z,17.37
2022-09-11T18:44:04.688Z,17.30
2022-09-11T18:47:08.059Z,17.31
2022-09-11T18:50:11.092Z,17.21
2022-09-11T18:53:16.310Z,17.21
2022-09-11T18:56:20.039Z,17.22
2022-09-11T18:59:24.348Z,17.09
2022-09-11T19:02:27.850Z,17.08
2022-09-11T19:05:32.901Z,17.05
2022-09-11T19:08:39.515Z,17.02
2022-09-11T19:11:41.890Z,16.93
2022-09-11T19:14:45.152Z,16.83
2022-09-11T19:17:48.877Z,16.77
2022-09-11T19:21:01.048Z,16.66
2022-09-11T19:24:03.732Z,16.67
2022-09-11T19:27:06.768Z,16.62
2022-09-11T19:30:09.780Z,16.62
2022-09-11T19:33:13.837Z,16.60
2022-09-11T19:36:17.635Z,16.55
2022-09-11T19:39:21.811Z,16.50
2022-09-11T19:42:24.838Z,16.49
2022-09-11T19:45:28.647Z,16.38
2022-09-11T19:48:32.672Z,16.38
2022-09-11T19:51:38.013Z,16.31
2022-09-11T19:54:42.514Z,16.24
2022-09-11T19:57:45.720Z,16.21
2022-09-11T20:00:48.199Z,16.19
2022-09-11T20:03:51.993Z,16.19
2022-09-11T20:10:00.467Z,16.12
2022-09-11T20:13:04.532Z,16.07
2022-09-11T20:16:18.232Z,16.07
2022-09-11T20:19:21.221Z,16.01
2022-09-11T20:22:24.916Z,16.04
2022-09-11T20:25:28.060Z,15.96
2022-09-11T20:28:30.659Z,15.95
2022-09-11T20:31:48.648Z,16.00
2022-09-11T20:34:51.652Z,15.91
2022-09-11T20:37:57.354Z,15.90
2022-09-11T20:41:01.260Z,15.80
2022-09-11T20:44:04.957Z,15.84
2022-09-11T20:47:10.105Z,15.81
2022-09-11T20:50:13.738Z,15.71
2022-09-11T20:53:16.231Z,15.69
2022-09-11T20:56:21.415Z,15.68
2022-09-11T20:59:23.809Z,15.78
2022-09-11T21:02:26.381Z,15.73
2022-09-11T21:05:30.188Z,15.67
2022-09-11T21:08:34.803Z,15.64
2022-09-11T21:11:37.492Z,15.68
2022-09-11T21:14:40.743Z,15.68
2022-09-11T21:17:43.208Z,15.68
2022-09-11T21:20:52.903Z,15.62
2022-09-11T21:23:56.116Z,15.63
2022-09-11T21:26:58.510Z,15.60
2022-09-11T21:30:01.174Z,15.64
2022-09-11T21:33:03.343Z,15.66
2022-09-11T21:36:06.544Z,15.67
2022-09-11T21:39:09.478Z,15.65
2022-09-11T21:42:12.800Z,15.72
2022-09-11T21:45:15.282Z,15.69
2022-09-11T21:48:17.382Z,15.68
2022-09-11T21:51:21.994Z,15.68
2022-09-11T21:54:26.778Z,15.65
2022-09-11T21:57:31.529Z,15.60
2022-09-11T22:00:42.089Z,15.59
2022-09-11T22:03:48.804Z,15.61
2022-09-11T22:06:51.280Z,15.57
2022-09-11T22:09:54.386Z,15.60
2022-09-11T22:12:58.253Z,15.58
2022-09-11T22:16:03.602Z,15.54
2022-09-11T22:19:08.733Z,15.54
2022-09-11T22:22:11.570Z,15.48
2022-09-11T22:25:16.067Z,15.46
2022-09-11T22:28:21.159Z,15.44
2022-09-11T22:31:26.168Z,15.48
2022-09-11T22:34:28.600Z,15.46
2022-09-11T22:37:32.105Z,15.44
2022-09-11T22:40:34.477Z,15.39
2022-09-11T22:43:36.828Z,15.33
2022-09-11T22:46:39.419Z,15.33
2022-09-11T22:49:42.486Z,15.30
2022-09-11T22:52:45.392Z,15.25
2022-09-11T22:55:49.828Z,15.26
2022-09-11T22:58:53.872Z,15.22
2022-09-11T23:01:56.567Z,15.19
2022-09-11T23:05:19.110Z,15.17
2022-09-11T23:08:29.635Z,15.12
2022-09-11T23:11:34.042Z,15.08
2022-09-11T23:14:37.442Z,15.02
2022-09-11T23:17:39.587Z,15.04
2022-09-11T23:20:42.621Z,15.07
2022-09-11T23:23:45.765Z,15.02
2022-09-11T23:26:48.495Z,15.02
2022-09-11T23:29:51.035Z,15.01
2022-09-11T23:32:55.272Z,14.97
2022-09-11T23:35:57.892Z,14.99
2022-09-11T23:39:02.070Z,14.96
2022-09-11T23:42:04.224Z,14.97
2022-09-11T23:45:08.350Z,14.95
2022-09-11T23:48:10.540Z,14.97
2022-09-11T23:51:12.871Z,14.96
2022-09-11T23:54:15.473Z,14.94
2022-09-11T23:57:17.675Z,14.92
